Map

Track Data

SID SEASON NUMBER BASIN SUBBASIN NAME ISO_TIME NATURE LAT LON WMO_WIND WMO_PRES WMO_AGENCY TRACK_TYPE DIST2LAND LANDFALL IFLAG USA_AGENCY USA_ATCF_ID USA_LAT USA_LON USA_RECORD USA_STATUS USA_WIND USA_PRES USA_SSHS USA_R34_NE USA_R34_SE USA_R34_SW USA_R34_NW USA_R50_NE USA_R50_SE USA_R50_SW USA_R50_NW USA_R64_NE USA_R64_SE USA_R64_SW USA_R64_NW USA_POCI USA_ROCI USA_RMW USA_EYE TOKYO_LAT TOKYO_LON TOKYO_GRADE TOKYO_WIND TOKYO_PRES TOKYO_R50_DIR TOKYO_R50_LONG TOKYO_R50_SHORT TOKYO_R30_DIR TOKYO_R30_LONG TOKYO_R30_SHORT TOKYO_LAND CMA_LAT CMA_LON CMA_CAT CMA_WIND CMA_PRES HKO_LAT HKO_LON HKO_CAT HKO_WIND HKO_PRES NEWDELHI_LAT NEWDELHI_LON NEWDELHI_GRADE NEWDELHI_WIND NEWDELHI_PRES NEWDELHI_CI NEWDELHI_DP NEWDELHI_POCI REUNION_LAT REUNION_LON REUNION_TYPE REUNION_WIND REUNION_PRES REUNION_TNUM REUNION_CI REUNION_RMW REUNION_R34_NE REUNION_R34_SE REUNION_R34_SW REUNION_R34_NW REUNION_R50_NE REUNION_R50_SE REUNION_R50_SW REUNION_R50_NW REUNION_R64_NE REUNION_R64_SE REUNION_R64_SW REUNION_R64_NW BOM_LAT BOM_LON BOM_TYPE BOM_WIND BOM_PRES BOM_TNUM BOM_CI BOM_RMW BOM_R34_NE BOM_R34_SE BOM_R34_SW BOM_R34_NW BOM_R50_NE BOM_R50_SE BOM_R50_SW BOM_R50_NW BOM_R64_NE BOM_R64_SE BOM_R64_SW BOM_R64_NW BOM_ROCI BOM_POCI BOM_EYE BOM_POS_METHOD BOM_PRES_METHOD NADI_LAT NADI_LON NADI_CAT NADI_WIND NADI_PRES WELLINGTON_LAT WELLINGTON_LON WELLINGTON_WIND WELLINGTON_PRES DS824_LAT DS824_LON DS824_STAGE DS824_WIND DS824_PRES TD9636_LAT TD9636_LON TD9636_STAGE TD9636_WIND TD9636_PRES TD9635_LAT TD9635_LON TD9635_WIND TD9635_PRES TD9635_ROCI NEUMANN_LAT NEUMANN_LON NEUMANN_CLASS NEUMANN_WIND NEUMANN_PRES MLC_LAT MLC_LON MLC_CLASS MLC_WIND MLC_PRES USA_GUST BOM_GUST BOM_GUST_PER REUNION_GUST REUNION_GUST_PER USA_SEAHGT USA_SEARAD_NE USA_SEARAD_SE USA_SEARAD_SW USA_SEARAD_NW STORM_SPEED STORM_DIR
1901001S07073 1901 1 SI MM NOT_NAMED 1901-01-01 06:00:00 NR -7.40000 72.7000 reunion main 1722 1722 _____O________ -1 -7.40000 72.7000 99 9.90000 3 188
1901001S07073 1901 1 SI MM NOT_NAMED 1901-01-01 09:00:00 NR -7.53586 72.6783 main 1732 1732 _____P________ -1 -7.53586 72.6783 99 3 187
1901001S07073 1901 1 SI MM NOT_NAMED 1901-01-01 12:00:00 NR -7.67187 72.6563 main 1751 1751 _____P________ -1 -7.67188 72.6563 99 3 187
1901001S07073 1901 1 SI MM NOT_NAMED 1901-01-01 15:00:00 NR -7.80820 72.6336 main 1766 1766 _____P________ -1 -7.80820 72.6336 99 3 190
1901001S07073 1901 1 SI MM NOT_NAMED 1901-01-01 18:00:00 NR -7.94500 72.6100 main 1776 1776 _____P________ -1 -7.94500 72.6100 99 3 188
1901001S07073 1901 1 SI MM NOT_NAMED 1901-01-01 21:00:00 NR -8.08242 72.5852 main 1796 1796 _____P________ -1 -8.08242 72.5852 99 3 193
1901001S07073 1901 1 SI MM NOT_NAMED 1901-01-02 00:00:00 NR -8.22062 72.5588 main 1806 1806 _____P________ -1 -8.22062 72.5588 99 3 191
1901001S07073 1901 1 SI MM NOT_NAMED 1901-01-02 03:00:00 NR -8.35977 72.5305 main 1831 1831 _____P________ -1 -8.35977 72.5305 99 3 192
1901001S07073 1901 1 SI MM NOT_NAMED 1901-01-02 06:00:00 NR -8.50000 72.5000 reunion main 1841 1841 _____O________ -1 -8.50000 72.5000 99 9.90000 3 194
1901001S07073 1901 1 SI MM NOT_NAMED 1901-01-02 09:00:00 NR -8.64153 72.4671 main 1850 1850 _____P________ -1 -8.64153 72.4671 99 3 194
1901001S07073 1901 1 SI MM NOT_NAMED 1901-01-02 12:00:00 NR -8.78469 72.4322 main 1875 1875 _____P________ -1 -8.78469 72.4322 99 3 193
1901001S07073 1901 1 SI MM NOT_NAMED 1901-01-02 15:00:00 NR -8.92989 72.3955 main 1885 1885 _____P________ -1 -8.92989 72.3955 99 3 194
1901001S07073 1901 1 SI MM NOT_NAMED 1901-01-02 18:00:00 NR -9.07751 72.3575 main 1905 1905 _____P________ -1 -9.07751 72.3575 99 3 195
1901001S07073 1901 1 SI MM NOT_NAMED 1901-01-02 21:00:00 NR -9.22794 72.3185 main 1920 1920 _____P________ -1 -9.22794 72.3185 99 3 194
1901001S07073 1901 1 SI MM NOT_NAMED 1901-01-03 00:00:00 NR -9.38157 72.2790 main 1940 1940 _____P________ -1 -9.38157 72.2790 99 3 195
1901001S07073 1901 1 SI MM NOT_NAMED 1901-01-03 03:00:00 NR -9.53879 72.2394 main 1955 1943 _____P________ -1 -9.53879 72.2394 99 3 194
1901001S07073 1901 1 SI MM NOT_NAMED 1901-01-03 06:00:00 NR -9.70000 72.2000 reunion main 1943 1929 _____O________ -1 -9.70000 72.2000 99 9.90000 3 193
1901001S07073 1901 1 SI MM NOT_NAMED 1901-01-03 09:00:00 NR -9.87718 72.1606 main 1929 1913 _____P________ -1 -9.87718 72.1606 99 4 193
1901001S07073 1901 1 SI MM NOT_NAMED 1901-01-03 12:00:00 NR -10.0600 72.1210 main 1906 1900 _____P________ -1 -10.0600 72.1210 99 4 193
1901001S07073 1901 1 SI MM NOT_NAMED 1901-01-03 15:00:00 NR -10.2453 72.0815 main 1900 1877 _____P________ -1 -10.2453 72.0815 99 4 191
1901001S07073 1901 1 SI MM NOT_NAMED 1901-01-03 18:00:00 NR -10.4300 72.0426 main 1877 1864 _____P________ -1 -10.4300 72.0426 99 4 192
1901001S07073 1901 1 SI MM NOT_NAMED 1901-01-03 21:00:00 NR -10.6109 72.0046 main 1864 1851 _____P________ -1 -10.6109 72.0046 99 4 192
1901001S07073 1901 1 SI MM NOT_NAMED 1901-01-04 00:00:00 NR -10.7850 71.9679 main 1851 1835 _____P________ -1 -10.7850 71.9679 99 3 191
1901001S07073 1901 1 SI MM NOT_NAMED 1901-01-04 03:00:00 NR -10.9491 71.9329 main 1835 1822 _____P________ -1 -10.9491 71.9329 99 3 191
1901001S07073 1901 1 SI MM NOT_NAMED 1901-01-04 06:00:00 NR -11.1000 71.9000 reunion main 1822 1816 _____O________ -1 -11.1000 71.9000 99 9.90000 3 190
1901001S07073 1901 1 SI MM NOT_NAMED 1901-01-04 09:00:00 NR -11.2355 71.8695 main 1816 1794 _____P________ -1 -11.2355 71.8695 99 3 192
1901001S07073 1901 1 SI MM NOT_NAMED 1901-01-04 12:00:00 NR -11.3569 71.8412 main 1794 1788 _____P________ -1 -11.3569 71.8412 99 2 194
1901001S07073 1901 1 SI MM NOT_NAMED 1901-01-04 15:00:00 NR -11.4660 71.8148 main 1788 1781 _____P________ -1 -11.4660 71.8148 99 2 196
1901001S07073 1901 1 SI MM NOT_NAMED 1901-01-04 18:00:00 NR -11.5650 71.7900 main 1781 1775 _____P________ -1 -11.5650 71.7900 99 2 192
1901001S07073 1901 1 SI MM NOT_NAMED 1901-01-04 21:00:00 NR -11.6558 71.7664 main 1775 1766 _____P________ -1 -11.6558 71.7664 99 2 194
1901001S07073 1901 1 SI MM NOT_NAMED 1901-01-05 00:00:00 NR -11.7406 71.7437 main 1766 1760 _____P________ -1 -11.7406 71.7437 99 2 190
1901001S07073 1901 1 SI MM NOT_NAMED 1901-01-05 03:00:00 NR -11.8213 71.7217 main 1760 1754 _____P________ -1 -11.8213 71.7217 99 2 192
1901001S07073 1901 1 SI MM NOT_NAMED 1901-01-05 06:00:00 NR -11.9000 71.7000 reunion main 1754 _____O________ -1 -11.9000 71.7000 99 9.90000 2 186

About IBTrACS Database

This database is a web-friendly format of International Best Track Archive for Climate Stewardship (IBTrACS), a global best track data archive curated by NOAA dating back to 1842.

Updated: 2021-12-01